sensor_id;sensor_type;location;lat;lon;timestamp;P1;durP1;ratioP1;P2;durP2;ratioP2
19623;SDS011;9959;49.798;9.928;2023-02-08T00:01:08;43.57;;;16.53;;
19623;SDS011;9959;49.798;9.928;2023-02-08T00:03:36;40.57;;;14.57;;
19623;SDS011;9959;49.798;9.928;2023-02-08T00:06:06;43.87;;;15.30;;
19623;SDS011;9959;49.798;9.928;2023-02-08T00:08:36;47.30;;;16.40;;
19623;SDS011;9959;49.798;9.928;2023-02-08T00:11:05;40.47;;;15.57;;
19623;SDS011;9959;49.798;9.928;2023-02-08T00:13:32;38.80;;;15.73;;
19623;SDS011;9959;49.798;9.928;2023-02-08T00:16:00;39.87;;;14.97;;
19623;SDS011;9959;49.798;9.928;2023-02-08T00:18:27;39.33;;;16.20;;
19623;SDS011;9959;49.798;9.928;2023-02-08T00:20:54;43.17;;;16.50;;
19623;SDS011;9959;49.798;9.928;2023-02-08T00:23:23;42.37;;;15.73;;
19623;SDS011;9959;49.798;9.928;2023-02-08T00:25:50;35.30;;;15.27;;
19623;SDS011;9959;49.798;9.928;2023-02-08T00:28:17;43.90;;;14.37;;
19623;SDS011;9959;49.798;9.928;2023-02-08T00:30:45;52.70;;;16.20;;
19623;SDS011;9959;49.798;9.928;2023-02-08T00:33:15;41.30;;;14.70;;
19623;SDS011;9959;49.798;9.928;2023-02-08T00:35:42;45.43;;;15.20;;
19623;SDS011;9959;49.798;9.928;2023-02-08T00:38:08;38.77;;;14.90;;
19623;SDS011;9959;49.798;9.928;2023-02-08T00:40:35;40.70;;;15.23;;
19623;SDS011;9959;49.798;9.928;2023-02-08T00:43:03;45.50;;;17.40;;
19623;SDS011;9959;49.798;9.928;2023-02-08T00:45:31;49.07;;;15.50;;
19623;SDS011;9959;49.798;9.928;2023-02-08T00:47:58;46.80;;;16.10;;
19623;SDS011;9959;49.798;9.928;2023-02-08T00:50:28;43.43;;;15.37;;
19623;SDS011;9959;49.798;9.928;2023-02-08T00:52:55;42.10;;;15.57;;
19623;SDS011;9959;49.798;9.928;2023-02-08T00:55:24;37.27;;;15.37;;
19623;SDS011;9959;49.798;9.928;2023-02-08T00:57:50;46.83;;;15.93;;
19623;SDS011;9959;49.798;9.928;2023-02-08T01:00:17;39.93;;;15.30;;
19623;SDS011;9959;49.798;9.928;2023-02-08T01:02:44;44.53;;;15.90;;
19623;SDS011;9959;49.798;9.928;2023-02-08T01:05:11;40.63;;;15.63;;
19623;SDS011;9959;49.798;9.928;2023-02-08T01:07:38;39.67;;;14.80;;
19623;SDS011;9959;49.798;9.928;2023-02-08T01:10:05;44.03;;;16.07;;
19623;SDS011;9959;49.798;9.928;2023-02-08T01:12:34;34.93;;;12.77;;
19623;SDS011;9959;49.798;9.928;2023-02-08T01:15:01;36.93;;;15.67;;
19623;SDS011;9959;49.798;9.928;2023-02-08T01:17:28;38.07;;;14.87;;
19623;SDS011;9959;49.798;9.928;2023-02-08T01:19:55;41.37;;;16.03;;
19623;SDS011;9959;49.798;9.928;2023-02-08T01:22:22;45.27;;;15.90;;
19623;SDS011;9959;49.798;9.928;2023-02-08T01:24:48;39.23;;;15.53;;
19623;SDS011;9959;49.798;9.928;2023-02-08T01:27:18;38.30;;;13.83;;
19623;SDS011;9959;49.798;9.928;2023-02-08T01:29:51;35.03;;;13.80;;
19623;SDS011;9959;49.798;9.928;2023-02-08T01:32:18;39.83;;;14.87;;
19623;SDS011;9959;49.798;9.928;2023-02-08T01:34:47;36.10;;;13.60;;
19623;SDS011;9959;49.798;9.928;2023-02-08T01:37:14;41.77;;;14.53;;
19623;SDS011;9959;49.798;9.928;2023-02-08T01:39:41;39.90;;;14.63;;
19623;SDS011;9959;49.798;9.928;2023-02-08T01:42:14;38.70;;;14.00;;
19623;SDS011;9959;49.798;9.928;2023-02-08T01:47:13;34.17;;;13.70;;
19623;SDS011;9959;49.798;9.928;2023-02-08T01:49:41;37.20;;;14.10;;
19623;SDS011;9959;49.798;9.928;2023-02-08T01:52:09;28.83;;;12.07;;
19623;SDS011;9959;49.798;9.928;2023-02-08T01:57:10;32.70;;;13.97;;
19623;SDS011;9959;49.798;9.928;2023-02-08T01:59:54;38.73;;;13.53;;
19623;SDS011;9959;49.798;9.928;2023-02-08T02:02:27;32.20;;;13.50;;
19623;SDS011;9959;49.798;9.928;2023-02-08T02:04:55;33.03;;;12.67;;
19623;SDS011;9959;49.798;9.928;2023-02-08T02:07:23;35.00;;;13.73;;
19623;SDS011;9959;49.798;9.928;2023-02-08T02:09:58;42.63;;;12.90;;
19623;SDS011;9959;49.798;9.928;2023-02-08T02:12:31;32.27;;;12.00;;
19623;SDS011;9959;49.798;9.928;2023-02-08T02:15:00;32.40;;;13.83;;
19623;SDS011;9959;49.798;9.928;2023-02-08T02:17:29;37.43;;;13.40;;
19623;SDS011;9959;49.798;9.928;2023-02-08T02:20:00;35.93;;;13.90;;
19623;SDS011;9959;49.798;9.928;2023-02-08T02:25:30;29.77;;;11.83;;
19623;SDS011;9959;49.798;9.928;2023-02-08T02:28:19;35.33;;;13.33;;
19623;SDS011;9959;49.798;9.928;2023-02-08T02:44:16;32.63;;;12.63;;
19623;SDS011;9959;49.798;9.928;2023-02-08T02:47:25;33.70;;;14.37;;
19623;SDS011;9959;49.798;9.928;2023-02-08T02:49:51;47.17;;;14.60;;
19623;SDS011;9959;49.798;9.928;2023-02-08T02:52:29;29.37;;;12.70;;
19623;SDS011;9959;49.798;9.928;2023-02-08T02:55:12;38.43;;;14.27;;
19623;SDS011;9959;49.798;9.928;2023-02-08T02:57:42;33.90;;;13.90;;
19623;SDS011;9959;49.798;9.928;2023-02-08T03:00:11;34.80;;;13.60;;
19623;SDS011;9959;49.798;9.928;2023-02-08T03:02:45;29.90;;;12.10;;
19623;SDS011;9959;49.798;9.928;2023-02-08T03:05:13;33.87;;;12.70;;
19623;SDS011;9959;49.798;9.928;2023-02-08T03:10:18;34.77;;;13.23;;
19623;SDS011;9959;49.798;9.928;2023-02-08T03:23:59;35.03;;;13.30;;
19623;SDS011;9959;49.798;9.928;2023-02-08T03:26:40;29.43;;;12.83;;
19623;SDS011;9959;49.798;9.928;2023-02-08T03:31:55;27.33;;;12.23;;
19623;SDS011;9959;49.798;9.928;2023-02-08T03:37:20;31.90;;;11.73;;
19623;SDS011;9959;49.798;9.928;2023-02-08T03:39:56;36.23;;;13.00;;
19623;SDS011;9959;49.798;9.928;2023-02-08T03:42:28;29.50;;;12.73;;
19623;SDS011;9959;49.798;9.928;2023-02-08T03:45:04;38.43;;;11.63;;
19623;SDS011;9959;49.798;9.928;2023-02-08T03:47:36;34.87;;;12.90;;
19623;SDS011;9959;49.798;9.928;2023-02-08T03:50:07;26.30;;;11.93;;
19623;SDS011;9959;49.798;9.928;2023-02-08T03:52:36;30.33;;;11.77;;
19623;SDS011;9959;49.798;9.928;2023-02-08T03:55:12;39.97;;;12.83;;
19623;SDS011;9959;49.798;9.928;2023-02-08T03:57:51;30.90;;;12.57;;
19623;SDS011;9959;49.798;9.928;2023-02-08T04:00:21;36.30;;;11.73;;
19623;SDS011;9959;49.798;9.928;2023-02-08T04:02:53;32.30;;;11.93;;
19623;SDS011;9959;49.798;9.928;2023-02-08T04:05:30;29.70;;;11.90;;
19623;SDS011;9959;49.798;9.928;2023-02-08T04:07:57;30.43;;;11.97;;
19623;SDS011;9959;49.798;9.928;2023-02-08T04:10:23;26.47;;;11.10;;
19623;SDS011;9959;49.798;9.928;2023-02-08T04:12:50;32.20;;;11.57;;
19623;SDS011;9959;49.798;9.928;2023-02-08T04:15:17;28.43;;;11.10;;
19623;SDS011;9959;49.798;9.928;2023-02-08T04:17:44;26.87;;;11.10;;
19623;SDS011;9959;49.798;9.928;2023-02-08T04:20:11;29.30;;;11.50;;
19623;SDS011;9959;49.798;9.928;2023-02-08T04:22:38;28.00;;;10.97;;
19623;SDS011;9959;49.798;9.928;2023-02-08T04:25:06;23.77;;;10.10;;
19623;SDS011;9959;49.798;9.928;2023-02-08T04:27:33;29.13;;;11.30;;
19623;SDS011;9959;49.798;9.928;2023-02-08T04:30:00;28.13;;;11.30;;
19623;SDS011;9959;49.798;9.928;2023-02-08T04:32:33;35.03;;;11.90;;
19623;SDS011;9959;49.798;9.928;2023-02-08T04:35:00;33.57;;;11.90;;
19623;SDS011;9959;49.798;9.928;2023-02-08T04:37:27;24.37;;;9.60;;
19623;SDS011;9959;49.798;9.928;2023-02-08T04:39:53;30.67;;;11.43;;
19623;SDS011;9959;49.798;9.928;2023-02-08T04:42:20;29.17;;;12.83;;
19623;SDS011;9959;49.798;9.928;2023-02-08T04:44:49;32.63;;;11.07;;
19623;SDS011;9959;49.798;9.928;2023-02-08T04:47:15;25.73;;;10.87;;
19623;SDS011;9959;49.798;9.928;2023-02-08T04:49:49;31.17;;;11.47;;
19623;SDS011;9959;49.798;9.928;2023-02-08T04:52:15;33.93;;;11.97;;
19623;SDS011;9959;49.798;9.928;2023-02-08T04:54:43;30.63;;;11.00;;
19623;SDS011;9959;49.798;9.928;2023-02-08T04:57:13;32.77;;;12.13;;
19623;SDS011;9959;49.798;9.928;2023-02-08T04:59:40;28.77;;;11.53;;
19623;SDS011;9959;49.798;9.928;2023-02-08T05:02:07;28.40;;;11.33;;
19623;SDS011;9959;49.798;9.928;2023-02-08T05:04:37;25.07;;;10.80;;
19623;SDS011;9959;49.798;9.928;2023-02-08T05:07:04;25.87;;;10.63;;
19623;SDS011;9959;49.798;9.928;2023-02-08T05:09:31;30.97;;;11.37;;
19623;SDS011;9959;49.798;9.928;2023-02-08T05:12:03;29.57;;;11.50;;
19623;SDS011;9959;49.798;9.928;2023-02-08T05:14:31;29.07;;;11.40;;
19623;SDS011;9959;49.798;9.928;2023-02-08T05:17:00;29.30;;;11.73;;
19623;SDS011;9959;49.798;9.928;2023-02-08T05:19:40;26.53;;;10.67;;
19623;SDS011;9959;49.798;9.928;2023-02-08T05:22:08;22.03;;;10.30;;
19623;SDS011;9959;49.798;9.928;2023-02-08T05:24:35;30.57;;;11.67;;
19623;SDS011;9959;49.798;9.928;2023-02-08T05:27:01;38.07;;;12.67;;
19623;SDS011;9959;49.798;9.928;2023-02-08T05:29:29;34.43;;;12.87;;
19623;SDS011;9959;49.798;9.928;2023-02-08T05:31:59;31.10;;;11.87;;
19623;SDS011;9959;49.798;9.928;2023-02-08T05:34:27;34.40;;;11.70;;
19623;SDS011;9959;49.798;9.928;2023-02-08T05:36:54;37.83;;;10.67;;
19623;SDS011;9959;49.798;9.928;2023-02-08T05:39:24;33.10;;;11.63;;
19623;SDS011;9959;49.798;9.928;2023-02-08T05:41:54;30.43;;;10.80;;
19623;SDS011;9959;49.798;9.928;2023-02-08T05:44:21;34.50;;;12.50;;
19623;SDS011;9959;49.798;9.928;2023-02-08T05:46:47;28.33;;;11.83;;
19623;SDS011;9959;49.798;9.928;2023-02-08T05:49:15;33.13;;;11.60;;
19623;SDS011;9959;49.798;9.928;2023-02-08T05:51:42;27.80;;;11.70;;
19623;SDS011;9959;49.798;9.928;2023-02-08T05:54:08;35.90;;;12.20;;
19623;SDS011;9959;49.798;9.928;2023-02-08T05:56:39;39.80;;;13.27;;
19623;SDS011;9959;49.798;9.928;2023-02-08T05:59:06;33.03;;;11.00;;
19623;SDS011;9959;49.798;9.928;2023-02-08T06:01:33;35.63;;;12.20;;
19623;SDS011;9959;49.798;9.928;2023-02-08T06:04:00;26.70;;;9.67;;
19623;SDS011;9959;49.798;9.928;2023-02-08T06:06:30;32.57;;;12.37;;
19623;SDS011;9959;49.798;9.928;2023-02-08T06:09:00;30.53;;;11.87;;
19623;SDS011;9959;49.798;9.928;2023-02-08T06:11:27;28.07;;;11.33;;
19623;SDS011;9959;49.798;9.928;2023-02-08T06:13:54;30.30;;;12.63;;
19623;SDS011;9959;49.798;9.928;2023-02-08T06:16:22;30.80;;;11.77;;
19623;SDS011;9959;49.798;9.928;2023-02-08T06:18:49;32.03;;;12.27;;
19623;SDS011;9959;49.798;9.928;2023-02-08T06:21:16;33.10;;;12.40;;
19623;SDS011;9959;49.798;9.928;2023-02-08T06:23:42;34.93;;;12.33;;
19623;SDS011;9959;49.798;9.928;2023-02-08T06:26:13;33.63;;;12.60;;
19623;SDS011;9959;49.798;9.928;2023-02-08T06:28:40;30.97;;;11.60;;
19623;SDS011;9959;49.798;9.928;2023-02-08T06:31:07;33.97;;;11.80;;
19623;SDS011;9959;49.798;9.928;2023-02-08T06:33:34;35.90;;;12.67;;
19623;SDS011;9959;49.798;9.928;2023-02-08T06:36:00;33.50;;;12.03;;
19623;SDS011;9959;49.798;9.928;2023-02-08T06:38:27;31.47;;;11.87;;
19623;SDS011;9959;49.798;9.928;2023-02-08T06:40:54;33.43;;;11.13;;
19623;SDS011;9959;49.798;9.928;2023-02-08T06:43:21;36.93;;;11.63;;
19623;SDS011;9959;49.798;9.928;2023-02-08T06:45:48;25.57;;;11.20;;
19623;SDS011;9959;49.798;9.928;2023-02-08T06:48:15;35.47;;;11.47;;
19623;SDS011;9959;49.798;9.928;2023-02-08T06:50:42;38.63;;;12.00;;
19623;SDS011;9959;49.798;9.928;2023-02-08T06:53:08;33.10;;;12.90;;
19623;SDS011;9959;49.798;9.928;2023-02-08T06:55:35;37.83;;;13.47;;
19623;SDS011;9959;49.798;9.928;2023-02-08T06:58:02;40.60;;;13.80;;
19623;SDS011;9959;49.798;9.928;2023-02-08T07:00:29;32.43;;;11.53;;
19623;SDS011;9959;49.798;9.928;2023-02-08T07:02:57;50.57;;;13.57;;
19623;SDS011;9959;49.798;9.928;2023-02-08T07:05:24;34.40;;;12.67;;
19623;SDS011;9959;49.798;9.928;2023-02-08T07:07:50;32.87;;;12.13;;
19623;SDS011;9959;49.798;9.928;2023-02-08T07:10:19;44.90;;;12.63;;
19623;SDS011;9959;49.798;9.928;2023-02-08T07:12:46;34.97;;;14.40;;
19623;SDS011;9959;49.798;9.928;2023-02-08T07:15:13;33.27;;;11.70;;
19623;SDS011;9959;49.798;9.928;2023-02-08T07:17:40;36.13;;;12.63;;
19623;SDS011;9959;49.798;9.928;2023-02-08T07:20:07;43.20;;;13.87;;
19623;SDS011;9959;49.798;9.928;2023-02-08T07:22:37;38.77;;;13.87;;
19623;SDS011;9959;49.798;9.928;2023-02-08T07:25:05;40.37;;;13.33;;
19623;SDS011;9959;49.798;9.928;2023-02-08T07:27:33;47.57;;;14.00;;
19623;SDS011;9959;49.798;9.928;2023-02-08T07:30:03;47.90;;;14.17;;
19623;SDS011;9959;49.798;9.928;2023-02-08T07:32:30;43.20;;;14.63;;
19623;SDS011;9959;49.798;9.928;2023-02-08T07:34:59;39.97;;;13.30;;
19623;SDS011;9959;49.798;9.928;2023-02-08T07:37:27;34.47;;;12.27;;
19623;SDS011;9959;49.798;9.928;2023-02-08T07:39:53;44.53;;;12.67;;
19623;SDS011;9959;49.798;9.928;2023-02-08T07:42:21;32.23;;;12.67;;
19623;SDS011;9959;49.798;9.928;2023-02-08T07:44:48;36.63;;;13.47;;
19623;SDS011;9959;49.798;9.928;2023-02-08T07:47:15;35.50;;;13.17;;
19623;SDS011;9959;49.798;9.928;2023-02-08T07:49:42;38.30;;;13.83;;
19623;SDS011;9959;49.798;9.928;2023-02-08T07:52:10;31.53;;;12.90;;
19623;SDS011;9959;49.798;9.928;2023-02-08T07:54:37;46.70;;;13.53;;
19623;SDS011;9959;49.798;9.928;2023-02-08T07:57:04;40.07;;;13.53;;
19623;SDS011;9959;49.798;9.928;2023-02-08T07:59:30;31.97;;;13.07;;
19623;SDS011;9959;49.798;9.928;2023-02-08T08:01:57;36.70;;;14.43;;
19623;SDS011;9959;49.798;9.928;2023-02-08T08:04:24;35.47;;;13.23;;
19623;SDS011;9959;49.798;9.928;2023-02-08T08:06:51;36.83;;;13.37;;
19623;SDS011;9959;49.798;9.928;2023-02-08T08:09:19;31.40;;;11.90;;
19623;SDS011;9959;49.798;9.928;2023-02-08T08:11:45;39.20;;;15.30;;
19623;SDS011;9959;49.798;9.928;2023-02-08T08:14:12;38.03;;;14.37;;
19623;SDS011;9959;49.798;9.928;2023-02-08T08:16:39;39.37;;;14.20;;
19623;SDS011;9959;49.798;9.928;2023-02-08T08:19:07;33.83;;;14.07;;
19623;SDS011;9959;49.798;9.928;2023-02-08T08:21:34;39.83;;;15.80;;
19623;SDS011;9959;49.798;9.928;2023-02-08T08:24:01;35.43;;;13.30;;
19623;SDS011;9959;49.798;9.928;2023-02-08T08:26:28;39.10;;;15.47;;
19623;SDS011;9959;49.798;9.928;2023-02-08T08:28:55;36.37;;;14.63;;
19623;SDS011;9959;49.798;9.928;2023-02-08T08:31:22;34.83;;;15.03;;
19623;SDS011;9959;49.798;9.928;2023-02-08T08:33:48;36.90;;;15.17;;
19623;SDS011;9959;49.798;9.928;2023-02-08T08:36:15;38.17;;;14.80;;
19623;SDS011;9959;49.798;9.928;2023-02-08T08:38:42;36.40;;;13.47;;
19623;SDS011;9959;49.798;9.928;2023-02-08T08:41:10;50.33;;;14.67;;
19623;SDS011;9959;49.798;9.928;2023-02-08T08:43:40;46.57;;;13.93;;
19623;SDS011;9959;49.798;9.928;2023-02-08T08:46:07;34.83;;;14.10;;
19623;SDS011;9959;49.798;9.928;2023-02-08T08:48:35;36.77;;;13.43;;
19623;SDS011;9959;49.798;9.928;2023-02-08T08:51:03;50.97;;;15.57;;
19623;SDS011;9959;49.798;9.928;2023-02-08T08:53:31;37.47;;;14.27;;
19623;SDS011;9959;49.798;9.928;2023-02-08T08:55:58;37.17;;;13.33;;
19623;SDS011;9959;49.798;9.928;2023-02-08T08:58:25;37.50;;;14.40;;
19623;SDS011;9959;49.798;9.928;2023-02-08T09:00:51;49.77;;;17.07;;
19623;SDS011;9959;49.798;9.928;2023-02-08T09:03:19;35.40;;;15.10;;
19623;SDS011;9959;49.798;9.928;2023-02-08T09:05:46;38.27;;;14.73;;
19623;SDS011;9959;49.798;9.928;2023-02-08T09:08:12;45.47;;;15.23;;
19623;SDS011;9959;49.798;9.928;2023-02-08T09:10:39;40.07;;;17.10;;
19623;SDS011;9959;49.798;9.928;2023-02-08T09:13:07;35.87;;;15.13;;
19623;SDS011;9959;49.798;9.928;2023-02-08T09:15:37;43.83;;;15.97;;
19623;SDS011;9959;49.798;9.928;2023-02-08T09:18:05;39.23;;;15.17;;
19623;SDS011;9959;49.798;9.928;2023-02-08T09:20:32;38.93;;;14.77;;
19623;SDS011;9959;49.798;9.928;2023-02-08T09:22:59;36.97;;;14.97;;
19623;SDS011;9959;49.798;9.928;2023-02-08T09:25:26;43.00;;;15.70;;
19623;SDS011;9959;49.798;9.928;2023-02-08T09:27:53;38.87;;;14.07;;
19623;SDS011;9959;49.798;9.928;2023-02-08T09:30:19;34.90;;;14.90;;
19623;SDS011;9959;49.798;9.928;2023-02-08T09:32:46;36.83;;;15.40;;
19623;SDS011;9959;49.798;9.928;2023-02-08T09:35:13;39.33;;;16.30;;
19623;SDS011;9959;49.798;9.928;2023-02-08T09:37:40;40.03;;;15.25;;
19623;SDS011;9959;49.798;9.928;2023-02-08T09:40:14;41.42;;;15.52;;
19623;SDS011;9959;49.798;9.928;2023-02-08T09:42:54;43.80;;;16.88;;
19623;SDS011;9959;49.798;9.928;2023-02-08T09:48:35;38.15;;;13.00;;
19623;SDS011;9959;49.798;9.928;2023-02-08T09:53:48;36.08;;;14.32;;
19623;SDS011;9959;49.798;9.928;2023-02-08T09:56:22;38.88;;;14.95;;
19623;SDS011;9959;49.798;9.928;2023-02-08T09:58:54;34.38;;;14.07;;
19623;SDS011;9959;49.798;9.928;2023-02-08T10:01:23;39.72;;;15.68;;
19623;SDS011;9959;49.798;9.928;2023-02-08T10:04:08;38.53;;;15.32;;
19623;SDS011;9959;49.798;9.928;2023-02-08T10:06:47;39.03;;;15.60;;
19623;SDS011;9959;49.798;9.928;2023-02-08T10:09:15;37.50;;;15.98;;
19623;SDS011;9959;49.798;9.928;2023-02-08T10:25:34;45.67;;;16.58;;
19623;SDS011;9959;49.798;9.928;2023-02-08T10:34:17;40.55;;;16.13;;
19623;SDS011;9959;49.798;9.928;2023-02-08T10:36:55;37.22;;;16.02;;
19623;SDS011;9959;49.798;9.928;2023-02-08T10:39:26;62.97;;;23.50;;
19623;SDS011;9959;49.798;9.928;2023-02-08T10:42:00;54.85;;;21.55;;
19623;SDS011;9959;49.798;9.928;2023-02-08T10:47:16;38.35;;;16.65;;
19623;SDS011;9959;49.798;9.928;2023-02-08T10:50:02;33.85;;;16.50;;
19623;SDS011;9959;49.798;9.928;2023-02-08T10:52:37;40.58;;;15.70;;
19623;SDS011;9959;49.798;9.928;2023-02-08T10:55:11;29.85;;;15.13;;
19623;SDS011;9959;49.798;9.928;2023-02-08T10:57:43;35.33;;;15.93;;
19623;SDS011;9959;49.798;9.928;2023-02-08T11:00:21;40.13;;;18.27;;
19623;SDS011;9959;49.798;9.928;2023-02-08T11:02:52;34.00;;;16.42;;
19623;SDS011;9959;49.798;9.928;2023-02-08T11:08:25;33.38;;;14.80;;
19623;SDS011;9959;49.798;9.928;2023-02-08T11:10:55;34.97;;;15.93;;
19623;SDS011;9959;49.798;9.928;2023-02-08T11:16:04;47.30;;;19.92;;
19623;SDS011;9959;49.798;9.928;2023-02-08T11:21:21;37.97;;;15.55;;
19623;SDS011;9959;49.798;9.928;2023-02-08T11:23:52;28.85;;;14.82;;
19623;SDS011;9959;49.798;9.928;2023-02-08T11:26:21;28.92;;;13.80;;
19623;SDS011;9959;49.798;9.928;2023-02-08T11:28:59;30.23;;;15.05;;
19623;SDS011;9959;49.798;9.928;2023-02-08T11:31:35;28.33;;;13.27;;
19623;SDS011;9959;49.798;9.928;2023-02-08T11:34:03;27.70;;;15.00;;
19623;SDS011;9959;49.798;9.928;2023-02-08T11:36:32;29.50;;;16.02;;
19623;SDS011;9959;49.798;9.928;2023-02-08T11:39:01;29.17;;;14.90;;
19623;SDS011;9959;49.798;9.928;2023-02-08T11:44:11;28.42;;;13.98;;
19623;SDS011;9959;49.798;9.928;2023-02-08T11:46:46;28.40;;;13.02;;
19623;SDS011;9959;49.798;9.928;2023-02-08T11:49:19;25.67;;;13.05;;
19623;SDS011;9959;49.798;9.928;2023-02-08T11:51:49;30.58;;;14.20;;
19623;SDS011;9959;49.798;9.928;2023-02-08T11:54:34;25.75;;;13.77;;
19623;SDS011;9959;49.798;9.928;2023-02-08T11:57:18;23.17;;;11.75;;
19623;SDS011;9959;49.798;9.928;2023-02-08T11:59:47;26.13;;;12.68;;
19623;SDS011;9959;49.798;9.928;2023-02-08T12:02:26;27.15;;;12.75;;
19623;SDS011;9959;49.798;9.928;2023-02-08T12:04:56;25.50;;;12.40;;
19623;SDS011;9959;49.798;9.928;2023-02-08T12:07:30;25.88;;;13.52;;
19623;SDS011;9959;49.798;9.928;2023-02-08T12:31:31;22.80;;;11.88;;
19623;SDS011;9959;49.798;9.928;2023-02-08T12:46:09;23.67;;;11.15;;
19623;SDS011;9959;49.798;9.928;2023-02-08T12:57:56;22.08;;;12.02;;
19623;SDS011;9959;49.798;9.928;2023-02-08T13:00:27;22.45;;;11.45;;
19623;SDS011;9959;49.798;9.928;2023-02-08T13:05:47;23.95;;;12.20;;
19623;SDS011;9959;49.798;9.928;2023-02-08T13:11:17;21.67;;;12.38;;
19623;SDS011;9959;49.798;9.928;2023-02-08T13:17:11;22.20;;;11.07;;
19623;SDS011;9959;49.798;9.928;2023-02-08T13:22:26;25.55;;;11.45;;
19623;SDS011;9959;49.798;9.928;2023-02-08T13:24:56;24.15;;;12.73;;
19623;SDS011;9959;49.798;9.928;2023-02-08T13:27:33;22.73;;;12.77;;
19623;SDS011;9959;49.798;9.928;2023-02-08T13:30:00;20.48;;;12.25;;
19623;SDS011;9959;49.798;9.928;2023-02-08T13:32:47;26.33;;;12.50;;
19623;SDS011;9959;49.798;9.928;2023-02-08T13:35:17;23.65;;;12.93;;
19623;SDS011;9959;49.798;9.928;2023-02-08T13:37:50;23.85;;;12.65;;
19623;SDS011;9959;49.798;9.928;2023-02-08T13:40:25;21.08;;;12.23;;
19623;SDS011;9959;49.798;9.928;2023-02-08T13:46:01;22.65;;;12.45;;
19623;SDS011;9959;49.798;9.928;2023-02-08T13:48:39;18.58;;;11.15;;
19623;SDS011;9959;49.798;9.928;2023-02-08T13:51:42;18.77;;;11.52;;
19623;SDS011;9959;49.798;9.928;2023-02-08T14:04:48;17.70;;;10.90;;
19623;SDS011;9959;49.798;9.928;2023-02-08T14:15:32;20.48;;;11.10;;
19623;SDS011;9959;49.798;9.928;2023-02-08T14:18:02;20.90;;;11.48;;
19623;SDS011;9959;49.798;9.928;2023-02-08T14:20:41;20.45;;;11.55;;
19623;SDS011;9959;49.798;9.928;2023-02-08T14:23:20;21.23;;;10.38;;
19623;SDS011;9959;49.798;9.928;2023-02-08T14:25:50;21.02;;;10.63;;
19623;SDS011;9959;49.798;9.928;2023-02-08T14:30:53;17.17;;;10.38;;
19623;SDS011;9959;49.798;9.928;2023-02-08T14:33:27;17.42;;;9.88;;
19623;SDS011;9959;49.798;9.928;2023-02-08T14:35:57;15.57;;;9.45;;
19623;SDS011;9959;49.798;9.928;2023-02-08T14:41:11;20.60;;;9.98;;
19623;SDS011;9959;49.798;9.928;2023-02-08T14:53:01;16.05;;;7.88;;
19623;SDS011;9959;49.798;9.928;2023-02-08T14:55:36;12.93;;;7.88;;
19623;SDS011;9959;49.798;9.928;2023-02-08T14:58:13;15.00;;;8.23;;
19623;SDS011;9959;49.798;9.928;2023-02-08T15:00:55;18.17;;;7.88;;
19623;SDS011;9959;49.798;9.928;2023-02-08T15:03:26;15.70;;;7.95;;
19623;SDS011;9959;49.798;9.928;2023-02-08T15:06:33;13.38;;;7.28;;
19623;SDS011;9959;49.798;9.928;2023-02-08T15:09:06;12.82;;;7.82;;
19623;SDS011;9959;49.798;9.928;2023-02-08T15:11:53;17.40;;;9.18;;
19623;SDS011;9959;49.798;9.928;2023-02-08T15:14:25;16.70;;;9.82;;
19623;SDS011;9959;49.798;9.928;2023-02-08T15:16:54;23.58;;;11.50;;
19623;SDS011;9959;49.798;9.928;2023-02-08T15:19:27;21.23;;;10.00;;
19623;SDS011;9959;49.798;9.928;2023-02-08T15:27:17;22.38;;;10.07;;
19623;SDS011;9959;49.798;9.928;2023-02-08T15:29:50;18.92;;;9.57;;
19623;SDS011;9959;49.798;9.928;2023-02-08T15:32:19;23.40;;;10.18;;
19623;SDS011;9959;49.798;9.928;2023-02-08T15:34:53;21.55;;;9.77;;
19623;SDS011;9959;49.798;9.928;2023-02-08T15:37:25;22.48;;;10.02;;
19623;SDS011;9959;49.798;9.928;2023-02-08T15:39:56;23.02;;;9.48;;
19623;SDS011;9959;49.798;9.928;2023-02-08T15:42:26;22.63;;;10.15;;
19623;SDS011;9959;49.798;9.928;2023-02-08T15:44:57;22.75;;;10.98;;
19623;SDS011;9959;49.798;9.928;2023-02-08T15:47:29;22.63;;;10.48;;
19623;SDS011;9959;49.798;9.928;2023-02-08T15:49:58;19.70;;;9.50;;
19623;SDS011;9959;49.798;9.928;2023-02-08T15:52:27;21.35;;;10.15;;
19623;SDS011;9959;49.798;9.928;2023-02-08T15:54:57;21.40;;;10.20;;
19623;SDS011;9959;49.798;9.928;2023-02-08T16:00:18;20.60;;;9.73;;
19623;SDS011;9959;49.798;9.928;2023-02-08T16:02:52;23.00;;;10.48;;
19623;SDS011;9959;49.798;9.928;2023-02-08T16:05:23;22.98;;;10.07;;
19623;SDS011;9959;49.798;9.928;2023-02-08T16:07:52;22.60;;;9.25;;
19623;SDS011;9959;49.798;9.928;2023-02-08T16:13:16;19.80;;;9.45;;
19623;SDS011;9959;49.798;9.928;2023-02-08T16:15:45;21.45;;;9.32;;
19623;SDS011;9959;49.798;9.928;2023-02-08T16:18:37;18.75;;;7.95;;
19623;SDS011;9959;49.798;9.928;2023-02-08T16:26:27;24.75;;;9.60;;
19623;SDS011;9959;49.798;9.928;2023-02-08T16:29:02;25.67;;;10.90;;
19623;SDS011;9959;49.798;9.928;2023-02-08T16:31:46;23.33;;;9.35;;
19623;SDS011;9959;49.798;9.928;2023-02-08T16:34:21;22.25;;;9.32;;
19623;SDS011;9959;49.798;9.928;2023-02-08T16:36:55;24.17;;;8.63;;
19623;SDS011;9959;49.798;9.928;2023-02-08T16:39:39;22.90;;;8.82;;
19623;SDS011;9959;49.798;9.928;2023-02-08T16:42:19;21.25;;;8.60;;
19623;SDS011;9959;49.798;9.928;2023-02-08T16:44:58;27.60;;;8.85;;
19623;SDS011;9959;49.798;9.928;2023-02-08T16:47:27;20.95;;;8.43;;
19623;SDS011;9959;49.798;9.928;2023-02-08T16:50:04;24.00;;;8.60;;
19623;SDS011;9959;49.798;9.928;2023-02-08T16:52:31;24.02;;;8.05;;
19623;SDS011;9959;49.798;9.928;2023-02-08T16:54:59;25.20;;;8.52;;
19623;SDS011;9959;49.798;9.928;2023-02-08T16:57:40;23.08;;;8.95;;
19623;SDS011;9959;49.798;9.928;2023-02-08T17:03:00;22.38;;;7.80;;
19623;SDS011;9959;49.798;9.928;2023-02-08T17:05:27;20.27;;;9.15;;
19623;SDS011;9959;49.798;9.928;2023-02-08T17:07:57;25.27;;;9.43;;
19623;SDS011;9959;49.798;9.928;2023-02-08T17:10:26;20.67;;;8.82;;
19623;SDS011;9959;49.798;9.928;2023-02-08T17:12:55;24.77;;;8.75;;
19623;SDS011;9959;49.798;9.928;2023-02-08T17:18:12;24.83;;;9.32;;
19623;SDS011;9959;49.798;9.928;2023-02-08T17:20:42;22.33;;;8.63;;
19623;SDS011;9959;49.798;9.928;2023-02-08T17:23:09;21.27;;;9.52;;
19623;SDS011;9959;49.798;9.928;2023-02-08T17:25:36;23.80;;;8.77;;
19623;SDS011;9959;49.798;9.928;2023-02-08T17:28:05;25.00;;;8.75;;
19623;SDS011;9959;49.798;9.928;2023-02-08T17:30:41;21.80;;;9.03;;
19623;SDS011;9959;49.798;9.928;2023-02-08T17:33:11;21.13;;;9.30;;
19623;SDS011;9959;49.798;9.928;2023-02-08T17:38:12;26.20;;;9.90;;
19623;SDS011;9959;49.798;9.928;2023-02-08T17:40:41;31.20;;;10.50;;
19623;SDS011;9959;49.798;9.928;2023-02-08T17:43:09;29.13;;;10.45;;
19623;SDS011;9959;49.798;9.928;2023-02-08T17:45:37;25.60;;;10.23;;
19623;SDS011;9959;49.798;9.928;2023-02-08T17:48:11;24.90;;;9.45;;
19623;SDS011;9959;49.798;9.928;2023-02-08T17:53:16;24.20;;;9.02;;
19623;SDS011;9959;49.798;9.928;2023-02-08T17:55:43;32.15;;;10.48;;
19623;SDS011;9959;49.798;9.928;2023-02-08T17:58:11;31.25;;;10.77;;
19623;SDS011;9959;49.798;9.928;2023-02-08T18:00:39;25.50;;;9.05;;
19623;SDS011;9959;49.798;9.928;2023-02-08T18:03:06;35.67;;;8.98;;
19623;SDS011;9959;49.798;9.928;2023-02-08T18:05:32;24.08;;;9.30;;
19623;SDS011;9959;49.798;9.928;2023-02-08T18:07:59;26.88;;;8.75;;
19623;SDS011;9959;49.798;9.928;2023-02-08T18:10:27;22.52;;;7.40;;
19623;SDS011;9959;49.798;9.928;2023-02-08T18:12:53;32.75;;;11.15;;